Time;durP1;ratioP1;P1;durP2;ratioP2;P2;SDS_P1;SDS_P2;PMS_P1;PMS_P2;Temp;Humidity;BMP_temperature;BMP_pressure;BME280_temperature;BME280_humidity;BME280_pressure;Samples;Min_cycle;Max_cycle;Signal;HPM_P1;HPM_P2
2023/04/28 00:01:16;;;;;;;8.13;4.70;;;;;;;9.90;60.98;100258.00;5109217;28;20111;-31
2023/04/28 00:03:41;;;;;;;6.05;3.90;;;;;;;9.82;60.54;100255.56;5108881;28;20055;-31
2023/04/28 00:06:07;;;;;;;6.38;3.65;;;;;;;9.92;60.17;100258.59;5108862;28;20035;-31
2023/04/28 00:08:33;;;;;;;7.18;4.82;;;;;;;9.72;61.44;100249.84;5108512;28;20081;-33
2023/04/28 00:10:59;;;;;;;5.13;3.70;;;;;;;9.60;61.45;100247.84;5108841;28;20046;-32
2023/04/28 00:13:24;;;;;;;7.82;4.78;;;;;;;9.64;60.72;100249.06;5109064;28;20065;-31
2023/04/28 00:15:51;;;;;;;5.07;3.40;;;;;;;9.57;61.49;100253.56;5108650;28;20111;-33
2023/04/28 00:18:17;;;;;;;6.53;3.83;;;;;;;9.59;60.51;100246.19;5108844;28;20027;-32
2023/04/28 00:20:43;;;;;;;6.30;3.63;;;;;;;9.59;60.32;100254.19;5108522;28;20085;-33
2023/04/28 00:23:08;;;;;;;6.38;3.50;;;;;;;9.61;60.65;100260.13;5108790;28;20019;-31
2023/04/28 00:25:34;;;;;;;5.47;3.28;;;;;;;9.50;61.55;100249.28;5108491;28;20016;-33
2023/04/28 00:28:00;;;;;;;9.20;3.58;;;;;;;9.56;60.68;100259.94;5108701;28;20451;-32
2023/04/28 00:30:26;;;;;;;5.93;3.13;;;;;;;9.54;60.62;100251.34;5108333;28;20439;-31
2023/04/28 00:32:51;;;;;;;7.07;3.50;;;;;;;9.45;60.15;100255.22;5108397;28;20042;-32
2023/04/28 00:35:17;;;;;;;7.53;3.67;;;;;;;9.32;61.05;100242.75;5107742;28;20020;-32
2023/04/28 00:37:43;;;;;;;5.82;3.63;;;;;;;9.38;60.93;100265.88;5108254;28;20023;-32
2023/04/28 00:40:08;;;;;;;7.32;3.88;;;;;;;9.34;60.93;100263.84;5108373;28;20030;-31
2023/04/28 00:42:34;;;;;;;6.05;3.70;;;;;;;9.27;61.73;100260.38;5107628;28;20030;-31
2023/04/28 00:45:04;;;;;;;8.05;3.95;;;;;;;9.32;61.51;100260.59;5108240;28;20467;-32
2023/04/28 00:47:31;;;;;;;7.70;4.20;;;;;;;9.44;59.75;100262.41;5108170;28;20023;-32
2023/04/28 00:49:58;;;;;;;6.70;3.60;;;;;;;9.22;61.05;100256.47;5107926;28;20515;-32
2023/04/28 00:52:23;;;;;;;9.40;4.10;;;;;;;9.14;61.30;100263.84;5107953;28;20111;-32
2023/04/28 00:54:49;;;;;;;6.50;3.75;;;;;;;9.07;61.70;100263.81;5108112;28;20119;-31
2023/04/28 00:57:14;;;;;;;8.20;4.10;;;;;;;9.10;61.36;100265.28;5103068;27;20088;-32
2023/04/28 00:59:40;;;;;;;8.00;3.45;;;;;;;8.98;62.67;100254.41;5102078;27;20094;-31
2023/04/28 01:02:06;;;;;;;5.93;3.30;;;;;;;9.06;62.26;100275.50;5123988;27;20034;-32
2023/04/28 01:04:32;;;;;;;7.05;3.85;;;;;;;9.15;61.32;100276.94;5120520;27;20027;-32
2023/04/28 01:06:59;;;;;;;6.28;3.47;;;;;;;8.92;64.02;100268.53;5124544;27;20109;-32
2023/04/28 01:09:25;;;;;;;16.05;6.13;;;;;;;9.06;63.43;100275.50;5120824;27;20035;-32
2023/04/28 01:11:50;;;;;;;7.38;3.90;;;;;;;8.89;65.71;100274.25;5127411;27;20028;-32
2023/04/28 01:14:16;;;;;;;6.97;3.53;;;;;;;8.69;66.13;100276.88;5126608;27;20023;-35
2023/04/28 01:16:42;;;;;;;7.63;3.65;;;;;;;8.76;65.89;100281.19;5116162;27;20120;-31
2023/04/28 01:19:14;;;;;;;5.50;3.75;;;;;;;8.65;66.47;100271.16;5109194;27;20054;-32
2023/04/28 01:21:39;;;;;;;7.35;3.80;;;;;;;8.70;67.14;100274.00;5107639;28;20110;-31
2023/04/28 01:24:05;;;;;;;7.28;3.95;;;;;;;8.65;67.68;100284.44;5107264;28;20712;-31
2023/04/28 01:26:31;;;;;;;7.65;3.80;;;;;;;8.67;68.71;100278.94;5107366;28;20028;-31
2023/04/28 01:28:56;;;;;;;5.63;3.67;;;;;;;8.43;69.33;100279.25;5107296;28;20026;-31
2023/04/28 01:31:21;;;;;;;6.57;4.10;;;;;;;8.37;69.91;100280.03;5107382;28;20034;-31
2023/04/28 01:33:47;;;;;;;11.30;4.82;;;;;;;7.99;71.90;100283.13;5140102;27;20038;-32
2023/04/28 01:36:12;;;;;;;9.05;3.72;;;;;;;8.24;71.71;100275.47;5106937;28;20071;-31
2023/04/28 01:38:38;;;;;;;7.15;4.13;;;;;;;8.14;72.37;100271.56;5107028;28;21026;-32
2023/04/28 01:41:03;;;;;;;7.90;3.92;;;;;;;7.89;74.47;100284.53;5107129;28;20027;-32
2023/04/28 01:43:29;;;;;;;7.53;3.92;;;;;;;8.06;73.72;100280.50;5106879;28;20431;-31
2023/04/28 01:45:54;;;;;;;8.50;4.40;;;;;;;8.08;72.90;100277.66;5106384;28;20613;-31
2023/04/28 01:48:19;;;;;;;9.77;4.20;;;;;;;8.16;72.02;100274.84;5106371;28;20419;-32
2023/04/28 01:50:45;;;;;;;5.97;3.65;;;;;;;8.20;71.63;100270.78;5106505;28;20027;-32
2023/04/28 01:53:10;;;;;;;6.82;3.88;;;;;;;7.97;71.43;100279.06;5106829;28;20083;-31
2023/04/28 01:55:37;;;;;;;6.32;3.80;;;;;;;7.76;72.11;100282.59;5106648;28;20062;-32
2023/04/28 01:58:02;;;;;;;6.93;3.85;;;;;;;7.91;72.33;100285.97;5106681;28;20122;-35
2023/04/28 02:00:28;;;;;;;7.00;3.78;;;;;;;7.91;71.87;100279.84;5106479;28;20130;-31
2023/04/28 02:02:53;;;;;;;8.77;4.10;;;;;;;7.96;71.30;100272.91;5106842;28;20027;-31
2023/04/28 02:05:19;;;;;;;8.15;3.80;;;;;;;7.82;72.10;100274.66;5106539;28;20089;-32
2023/04/28 02:07:45;;;;;;;5.85;3.42;;;;;;;8.02;72.22;100285.38;5106213;28;20048;-32
2023/04/28 02:10:10;;;;;;;7.45;4.70;;;;;;;7.89;72.37;100303.91;5106566;28;20104;-31
2023/04/28 02:12:36;;;;;;;7.00;4.25;;;;;;;7.88;72.50;100291.66;5106446;28;20408;-32
2023/04/28 02:15:01;;;;;;;7.78;4.45;;;;;;;7.94;72.32;100280.25;5106296;28;20026;-32
2023/04/28 02:17:29;;;;;;;8.93;4.25;;;;;;;7.34;73.73;100279.84;5106338;28;20035;-34
2023/04/28 02:19:58;;;;;;;8.75;4.32;;;;;;;7.37;75.00;100302.53;5106477;28;20082;-33
2023/04/28 02:22:23;;;;;;;8.82;5.10;;;;;;;6.96;76.87;100298.69;5106458;28;20115;-31
2023/04/28 02:24:49;;;;;;;7.35;4.10;;;;;;;7.35;74.85;100309.84;5106135;28;20567;-31
2023/04/28 02:27:14;;;;;;;8.10;5.00;;;;;;;7.39;74.97;100309.28;5106277;28;20479;-33
2023/04/28 02:29:41;;;;;;;7.28;4.13;;;;;;;7.60;74.37;100310.25;5106190;28;20043;-32
2023/04/28 02:32:06;;;;;;;6.53;3.65;;;;;;;7.14;76.00;100316.00;5106177;28;20024;-33
2023/04/28 02:34:32;;;;;;;6.57;3.75;;;;;;;6.70;77.07;100331.06;5106174;28;20031;-31
2023/04/28 02:36:57;;;;;;;6.47;3.40;;;;;;;6.71;77.72;100332.69;5105933;28;20461;-32
2023/04/28 02:39:25;;;;;;;7.45;3.60;;;;;;;6.57;78.28;100325.63;5105847;28;20096;-31
2023/04/28 02:41:51;;;;;;;7.00;5.05;;;;;;;6.30;76.58;100298.00;5106197;28;20067;-32
2023/04/28 02:44:17;;;;;;;6.47;4.03;;;;;;;6.51;76.46;100343.06;5106123;28;20411;-32
2023/04/28 02:46:42;;;;;;;7.75;4.05;;;;;;;6.46;76.81;100339.31;5105596;28;20028;-32
2023/04/28 02:49:08;;;;;;;7.55;4.53;;;;;;;6.38;78.06;100349.03;5105756;28;20674;-33
2023/04/28 02:51:33;;;;;;;9.20;4.60;;;;;;;6.88;76.93;100361.63;5106026;28;20034;-32
2023/04/28 02:53:59;;;;;;;7.50;4.22;;;;;;;6.50;77.43;100361.78;5105968;28;20038;-32
2023/04/28 02:56:24;;;;;;;7.35;4.00;;;;;;;6.17;78.17;100336.53;5105710;28;20027;-33
2023/04/28 02:58:50;;;;;;;6.18;4.03;;;;;;;6.34;79.29;100363.66;5105583;28;20115;-32
2023/04/28 03:01:15;;;;;;;7.78;4.60;;;;;;;6.23;80.48;100367.59;5105912;28;20035;-32
2023/04/28 03:03:41;;;;;;;7.88;4.22;;;;;;;6.21;80.81;100369.59;5105692;28;20023;-31
2023/04/28 03:06:06;;;;;;;8.32;4.90;;;;;;;6.47;80.84;100383.38;5105581;28;20505;-32
2023/04/28 03:08:31;;;;;;;8.10;5.50;;;;;;;6.73;78.06;100362.50;5105481;28;20044;-31
2023/04/28 03:10:57;;;;;;;7.10;4.40;;;;;;;7.03;77.42;100367.72;5105637;28;20024;-31
2023/04/28 03:13:23;;;;;;;7.80;4.55;;;;;;;7.09;76.98;100372.28;5105532;28;20078;-31
2023/04/28 03:15:48;;;;;;;12.25;4.97;;;;;;;6.59;76.51;100371.28;5105612;28;20527;-31
2023/04/28 03:18:14;;;;;;;7.53;4.70;;;;;;;6.00;78.44;100346.47;5094223;28;20024;-32
2023/04/28 03:20:39;;;;;;;10.32;4.70;;;;;;;6.37;76.50;100373.84;5102353;28;20036;-32
2023/04/28 03:23:04;;;;;;;8.45;4.88;;;;;;;6.03;79.56;100369.94;5105164;28;20027;-31
2023/04/28 03:25:30;;;;;;;8.23;5.15;;;;;;;6.01;79.04;100374.59;5106153;28;20031;-32
2023/04/28 03:27:55;;;;;;;9.32;5.28;;;;;;;5.46;84.74;100381.03;5126074;27;20422;-31
2023/04/28 03:30:21;;;;;;;9.23;4.82;;;;;;;5.44;85.00;100375.09;5123863;27;20034;-31
2023/04/28 03:32:46;;;;;;;8.80;4.63;;;;;;;5.71;84.93;100394.06;5123562;28;20084;-33
2023/04/28 03:35:12;;;;;;;8.20;5.18;;;;;;;5.41;86.23;100399.25;5105181;28;20031;-32
2023/04/28 03:37:37;;;;;;;37.20;17.65;;;;;;;5.33;87.40;100407.22;5112273;28;20084;-31
2023/04/28 03:40:03;;;;;;;13.52;8.15;;;;;;;5.58;86.90;100408.72;5112779;28;20039;-31
2023/04/28 03:42:29;;;;;;;11.13;7.47;;;;;;;5.51;87.01;100415.69;5125788;27;20035;-32
2023/04/28 03:44:54;;;;;;;18.42;8.63;;;;;;;5.35;89.94;100418.47;5102067;28;20032;-31
2023/04/28 03:47:20;;;;;;;11.27;6.90;;;;;;;5.80;88.71;100424.72;5114295;28;20015;-32
2023/04/28 03:49:45;;;;;;;11.63;7.43;;;;;;;5.94;87.24;100428.41;5125806;27;20033;-32
2023/04/28 03:52:10;;;;;;;11.48;6.85;;;;;;;5.82;86.40;100406.84;5125855;27;20126;-32
2023/04/28 03:54:36;;;;;;;16.20;6.20;;;;;;;6.23;83.67;100414.41;5125844;27;20031;-32
2023/04/28 03:57:03;;;;;;;10.32;6.18;;;;;;;6.52;83.10;100437.47;5125690;28;20028;-32
2023/04/28 03:59:28;;;;;;;8.40;5.53;;;;;;;6.66;81.72;100441.13;5125572;27;20024;-32
2023/04/28 04:01:54;;;;;;;7.82;5.47;;;;;;;6.66;79.94;100441.13;5125499;27;20571;-31
2023/04/28 04:04:19;;;;;;;12.93;5.00;;;;;;;6.75;79.26;100450.59;5125864;27;20027;-31
2023/04/28 04:06:45;;;;;;;9.40;4.97;;;;;;;6.86;78.93;100453.78;5125814;27;20072;-31
2023/04/28 04:09:11;;;;;;;13.23;7.88;;;;;;;6.32;83.20;100450.41;5125550;27;20054;-32
2023/04/28 04:11:36;;;;;;;8.82;5.65;;;;;;;5.90;85.99;100446.47;5129193;27;20411;-32
2023/04/28 04:14:01;;;;;;;8.05;5.45;;;;;;;5.58;87.06;100453.69;5129484;27;20031;-31
2023/04/28 04:16:28;;;;;;;8.35;5.28;;;;;;;5.44;88.32;100467.66;5129152;27;20023;-32
2023/04/28 04:18:53;;;;;;;11.05;6.57;;;;;;;5.76;87.42;100471.06;5129260;27;20111;-32
2023/04/28 04:21:19;;;;;;;13.05;8.95;;;;;;;6.03;85.30;100467.91;5129101;27;20084;-33
2023/04/28 04:23:44;;;;;;;11.90;7.15;;;;;;;5.89;87.88;100466.00;5129015;27;20463;-32
2023/04/28 04:26:10;;;;;;;12.32;6.75;;;;;;;5.87;86.78;100481.25;5129156;27;20447;-32
2023/04/28 04:28:35;;;;;;;15.98;7.05;;;;;;;5.88;88.82;100480.25;5129104;27;20030;-31
2023/04/28 04:31:01;;;;;;;17.38;8.35;;;;;;;6.46;85.33;100487.69;5129083;27;20023;-33
2023/04/28 04:33:27;;;;;;;12.93;7.35;;;;;;;6.25;86.99;100475.97;5128655;27;20027;-32
2023/04/28 04:35:53;;;;;;;15.25;8.27;;;;;;;6.69;83.05;100488.44;5128995;27;20031;-31
2023/04/28 04:38:18;;;;;;;16.25;7.90;;;;;;;6.73;83.38;100489.72;5129025;27;20042;-32
2023/04/28 04:40:44;;;;;;;16.92;8.82;;;;;;;6.85;83.56;100498.03;5128870;27;20126;-31
2023/04/28 04:43:09;;;;;;;16.25;8.65;;;;;;;6.87;84.69;100500.50;5128841;27;20110;-31
2023/04/28 04:45:35;;;;;;;15.82;8.77;;;;;;;6.93;86.18;100505.91;5128825;27;20020;-31
2023/04/28 04:48:01;;;;;;;13.48;8.52;;;;;;;7.22;84.59;100512.97;5128809;27;20440;-32
2023/04/28 04:50:26;;;;;;;11.60;6.93;;;;;;;7.39;81.67;100518.88;5128504;27;20019;-32
2023/04/28 04:52:53;;;;;;;11.43;6.05;;;;;;;7.41;83.43;100513.41;5128542;27;20083;-32
2023/04/28 04:55:18;;;;;;;9.88;7.03;;;;;;;7.79;84.48;100521.16;5128282;27;20047;-31
2023/04/28 04:57:44;;;;;;;12.63;6.65;;;;;;;7.97;82.07;100505.59;5128882;27;20118;-31
2023/04/28 05:00:10;;;;;;;10.30;6.22;;;;;;;8.02;81.63;100531.59;5128233;27;20058;-32
2023/04/28 05:02:36;;;;;;;11.95;6.10;;;;;;;8.29;80.65;100537.13;5128462;27;20045;-32
2023/04/28 05:05:01;;;;;;;11.77;6.20;;;;;;;8.61;77.58;100530.44;5128445;27;20407;-34
2023/04/28 05:07:27;;;;;;;9.63;5.63;;;;;;;8.53;76.73;100518.13;5128303;27;20058;-33
2023/04/28 05:09:52;;;;;;;8.27;5.57;;;;;;;9.05;74.85;100527.44;5109726;27;20036;-31
2023/04/28 05:12:17;;;;;;;8.90;6.07;;;;;;;9.12;74.64;100532.78;5107509;28;20020;-31
2023/04/28 05:14:43;;;;;;;9.02;5.35;;;;;;;9.06;73.58;100530.91;5107979;28;20042;-32
2023/04/28 05:17:08;;;;;;;9.60;5.28;;;;;;;9.24;75.05;100531.19;5107327;28;20054;-32
2023/04/28 05:19:34;;;;;;;9.90;5.45;;;;;;;9.49;70.71;100537.84;5107841;27;20795;-32
2023/04/28 05:22:00;;;;;;;8.35;5.15;;;;;;;10.16;69.75;100544.13;5107172;28;20031;-32
2023/04/28 05:24:26;;;;;;;9.43;4.63;;;;;;;9.98;65.00;100539.38;5107774;28;20134;-32
2023/04/28 05:26:52;;;;;;;7.13;4.78;;;;;;;9.80;61.46;100538.09;5107378;28;20486;-32
2023/04/28 05:29:18;;;;;;;7.07;3.90;;;;;;;9.84;63.39;100557.19;5105809;28;20031;-32
2023/04/28 05:31:44;;;;;;;8.15;4.30;;;;;;;9.98;61.55;100564.16;5107189;28;20028;-32
2023/04/28 05:34:09;;;;;;;6.70;4.70;;;;;;;10.04;63.51;100562.56;5108877;27;20031;-31
2023/04/28 05:36:35;;;;;;;8.43;5.15;;;;;;;10.44;60.47;100574.09;5107306;28;20020;-32
2023/04/28 05:39:01;;;;;;;11.60;7.57;;;;;;;10.30;58.82;100567.13;5106841;28;20024;-34
2023/04/28 05:41:26;;;;;;;9.15;5.72;;;;;;;9.76;66.87;100565.34;5111509;27;20081;-32
2023/04/28 05:43:52;;;;;;;12.38;6.63;;;;;;;10.06;66.69;100579.97;5114063;27;20969;-33
2023/04/28 05:46:17;;;;;;;9.80;5.13;;;;;;;10.18;63.72;100576.72;5103591;27;20034;-31
2023/04/28 05:48:43;;;;;;;8.88;5.00;;;;;;;10.00;61.32;100579.97;5104849;27;20039;-32
2023/04/28 05:51:08;;;;;;;10.77;4.82;;;;;;;9.81;61.16;100573.56;5110395;27;20393;-33
2023/04/28 05:53:34;;;;;;;7.22;4.50;;;;;;;9.91;64.79;100573.16;5127314;27;20050;-31
2023/04/28 05:55:59;;;;;;;8.77;5.50;;;;;;;9.98;66.80;100588.16;5121052;27;20028;-32
2023/04/28 05:58:25;;;;;;;7.28;4.97;;;;;;;9.66;66.48;100581.72;5095454;28;20024;-33
2023/04/28 06:00:50;;;;;;;7.57;4.75;;;;;;;9.80;65.75;100587.91;5086111;28;20036;-32
2023/04/28 06:03:17;;;;;;;7.68;4.80;;;;;;;9.75;64.33;100591.19;5095994;28;20016;-32
2023/04/28 06:05:44;;;;;;;6.75;4.60;;;;;;;9.75;64.91;100591.19;5104629;28;20027;-31
2023/04/28 06:08:09;;;;;;;7.32;5.25;;;;;;;10.10;64.96;100598.22;5106890;28;20054;-32
2023/04/28 06:10:35;;;;;;;10.02;6.03;;;;;;;9.98;63.23;100595.34;5106446;28;20036;-33
2023/04/28 06:13:01;;;;;;;7.90;4.57;;;;;;;10.25;61.21;100596.19;5106782;28;20156;-32
2023/04/28 06:15:26;;;;;;;5.88;4.10;;;;;;;10.30;59.43;100593.78;5105864;28;20023;-31
2023/04/28 06:17:52;;;;;;;6.53;4.55;;;;;;;10.45;60.94;100589.03;5106597;28;20027;-31
2023/04/28 06:20:19;;;;;;;8.63;5.10;;;;;;;10.94;61.34;100599.47;5106548;28;20031;-32
2023/04/28 06:22:45;;;;;;;13.75;5.32;;;;;;;10.86;60.21;100605.84;5106388;28;20019;-32
2023/04/28 06:25:10;;;;;;;10.20;5.00;;;;;;;10.96;58.94;100587.56;5106234;28;20031;-32
2023/04/28 06:27:35;;;;;;;8.32;4.70;;;;;;;11.13;57.03;100597.78;5106220;28;20039;-32
2023/04/28 06:30:01;;;;;;;7.95;4.55;;;;;;;11.26;58.58;100598.59;5105002;28;20071;-32
2023/04/28 06:32:26;;;;;;;8.60;4.32;;;;;;;11.51;56.49;100611.22;5105833;28;20016;-33
2023/04/28 06:34:52;;;;;;;11.77;4.63;;;;;;;11.86;55.09;100608.19;5106103;28;20024;-32
2023/04/28 06:37:17;;;;;;;7.38;4.40;;;;;;;12.26;51.70;100602.66;5106105;28;20427;-33
2023/04/28 06:39:43;;;;;;;7.60;4.32;;;;;;;12.22;52.94;100609.47;5105838;28;20081;-31
2023/04/28 06:42:08;;;;;;;6.65;4.70;;;;;;;12.10;54.29;100614.66;5106083;28;20538;-31
2023/04/28 06:44:34;;;;;;;8.38;4.45;;;;;;;12.02;54.32;100607.72;5105717;28;20031;-31
2023/04/28 06:46:59;;;;;;;6.55;4.07;;;;;;;11.73;52.91;100613.59;5105852;28;20083;-32
2023/04/28 06:49:25;;;;;;;11.15;4.85;;;;;;;11.68;53.08;100606.22;5105612;28;20083;-31
2023/04/28 06:51:50;;;;;;;7.80;4.57;;;;;;;11.52;52.03;100618.19;5106108;28;20039;-31
2023/04/28 06:54:16;;;;;;;7.57;4.50;;;;;;;11.97;52.40;100615.56;5105949;28;20035;-33
2023/04/28 06:56:41;;;;;;;7.10;3.92;;;;;;;12.35;49.04;100612.03;5106174;28;20080;-32
2023/04/28 06:59:07;;;;;;;9.02;4.25;;;;;;;12.34;50.26;100609.56;5105480;28;20414;-32
2023/04/28 07:01:32;;;;;;;7.82;4.40;;;;;;;12.19;52.96;100596.50;5105887;28;20420;-31
2023/04/28 07:03:58;;;;;;;8.10;4.22;;;;;;;12.30;49.98;100619.91;5105787;28;20015;-31
2023/04/28 07:06:23;;;;;;;5.70;3.60;;;;;;;12.57;49.57;100617.81;5106104;28;20598;-32
2023/04/28 07:08:49;;;;;;;6.45;3.70;;;;;;;12.44;49.65;100616.09;5105411;28;20039;-32
2023/04/28 07:11:15;;;;;;;6.20;3.38;;;;;;;12.39;50.52;100620.44;5105618;28;20124;-31
2023/04/28 07:13:40;;;;;;;5.72;3.35;;;;;;;12.41;49.18;100613.84;5105470;28;20604;-31
2023/04/28 07:16:06;;;;;;;7.40;3.90;;;;;;;12.80;50.29;100619.06;5105729;28;20114;-31
2023/04/28 07:18:32;;;;;;;7.85;4.20;;;;;;;12.59;51.78;100617.63;5105689;28;20031;-32
2023/04/28 07:20:57;;;;;;;7.68;3.70;;;;;;;12.42;51.39;100607.47;5105318;28;20450;-32
2023/04/28 07:23:23;;;;;;;7.13;3.58;;;;;;;12.24;51.83;100607.38;5105701;28;20443;-32
2023/04/28 07:25:48;;;;;;;6.78;3.67;;;;;;;12.22;50.45;100590.75;5105470;28;20114;-31
2023/04/28 07:28:13;;;;;;;6.72;3.42;;;;;;;12.27;50.90;100614.97;5105274;28;20072;-32
2023/04/28 07:30:39;;;;;;;8.27;3.97;;;;;;;12.65;53.83;100606.03;5105650;28;20021;-32
2023/04/28 07:33:04;;;;;;;5.85;4.00;;;;;;;12.85;53.39;100617.38;5105427;28;20451;-32
2023/04/28 07:35:30;;;;;;;6.38;4.03;;;;;;;12.82;52.09;100596.41;5105612;28;20459;-31
2023/04/28 07:37:56;;;;;;;6.72;3.45;;;;;;;13.24;51.63;100603.81;5105180;28;20031;-33
2023/04/28 07:40:22;;;;;;;7.07;3.47;;;;;;;13.55;48.25;100602.03;5105349;28;20792;-33
2023/04/28 07:42:48;;;;;;;5.97;2.78;;;;;;;13.13;47.69;100602.69;5105123;28;20500;-31
2023/04/28 07:45:14;;;;;;;6.80;3.15;;;;;;;13.10;48.88;100588.91;5106982;28;20027;-32
2023/04/28 07:47:40;;;;;;;7.40;2.90;;;;;;;13.12;48.88;100609.09;5107982;28;20084;-33
2023/04/28 07:50:06;;;;;;;8.07;2.95;;;;;;;13.14;51.57;100577.53;5105943;27;20032;-32
2023/04/28 07:52:32;;;;;;;5.55;2.85;;;;;;;13.61;49.71;100599.28;5088863;28;20027;-32
2023/04/28 07:54:58;;;;;;;7.13;2.90;;;;;;;13.59;48.35;100593.31;5088543;28;20024;-31
2023/04/28 07:57:24;;;;;;;4.53;2.90;;;;;;;13.10;46.72;100595.09;5088924;28;20024;-32
2023/04/28 07:59:50;;;;;;;6.97;2.95;;;;;;;13.72;48.52;100588.84;5088593;28;20035;-32
2023/04/28 08:02:15;;;;;;;7.13;2.75;;;;;;;13.66;49.54;100591.34;5088596;28;20035;-31
2023/04/28 08:04:41;;;;;;;5.80;2.88;;;;;;;14.23;49.79;100580.22;5088674;28;20024;-31
2023/04/28 08:07:10;;;;;;;5.15;2.70;;;;;;;13.79;47.82;100589.53;5088850;28;20424;-31
2023/04/28 08:09:36;;;;;;;7.55;2.78;;;;;;;13.74;47.76;100586.75;5088623;28;20067;-31
2023/04/28 08:12:01;;;;;;;8.75;2.70;;;;;;;13.94;47.62;100598.00;5087596;28;20028;-31
2023/04/28 08:14:27;;;;;;;5.50;2.53;;;;;;;13.93;48.21;100591.00;5088506;28;20017;-32
2023/04/28 08:16:53;;;;;;;4.95;2.50;;;;;;;13.75;48.34;100585.69;5088543;28;20038;-31
2023/04/28 08:19:19;;;;;;;5.82;2.80;;;;;;;13.68;49.18;100582.28;5088472;28;20033;-31
2023/04/28 08:21:44;;;;;;;6.00;2.70;;;;;;;13.93;48.85;100582.94;5088401;28;20086;-32
2023/04/28 08:24:10;;;;;;;4.30;2.80;;;;;;;14.33;47.78;100585.03;5088317;28;20425;-31
2023/04/28 08:26:38;;;;;;;5.72;2.85;;;;;;;14.48;47.25;100587.28;5088048;28;20402;-32
2023/04/28 08:29:04;;;;;;;5.75;2.83;;;;;;;14.40;45.60;100569.63;5088135;28;20030;-32
2023/04/28 08:31:30;;;;;;;6.60;2.80;;;;;;;14.38;47.39;100578.97;5088348;28;20016;-31
2023/04/28 08:33:55;;;;;;;6.32;2.78;;;;;;;14.43;47.77;100582.59;5088025;28;20066;-31
2023/04/28 08:36:22;;;;;;;6.03;2.80;;;;;;;14.37;48.29;100574.66;5088419;28;20040;-32
2023/04/28 08:38:47;;;;;;;5.63;2.92;;;;;;;14.53;47.33;100570.50;5087671;28;20841;-31
2023/04/28 08:41:14;;;;;;;6.88;2.50;;;;;;;14.47;45.50;100546.22;5088038;28;20028;-32
2023/04/28 08:43:41;;;;;;;6.80;2.67;;;;;;;14.81;46.29;100576.00;5088055;28;20029;-32
2023/04/28 08:46:07;;;;;;;6.05;2.63;;;;;;;14.35;44.72;100566.84;5087973;28;20032;-32
2023/04/28 08:48:42;;;;;;;5.70;2.60;;;;;;;15.09;44.90;100560.22;5087826;28;20870;-33
2023/04/28 08:51:08;;;;;;;5.78;2.70;;;;;;;15.29;43.79;100559.81;5087642;28;20024;-31
2023/04/28 08:53:38;;;;;;;5.50;2.70;;;;;;;15.01;43.28;100542.59;5088019;28;20452;-31
2023/04/28 08:56:05;;;;;;;5.50;2.35;;;;;;;15.22;44.09;100560.78;5087157;28;20111;-32
2023/04/28 08:58:31;;;;;;;5.60;2.90;;;;;;;15.53;43.39;100566.75;5087448;28;20042;-31
2023/04/28 09:00:57;;;;;;;5.72;2.80;;;;;;;15.18;44.68;100559.59;5087940;28;20298;-32
2023/04/28 09:03:22;;;;;;;5.88;3.00;;;;;;;15.59;42.31;100557.72;5087574;28;20024;-31
2023/04/28 09:05:48;;;;;;;4.50;2.67;;;;;;;15.50;42.67;100563.72;5087583;28;20561;-33
2023/04/28 09:08:13;;;;;;;5.30;2.70;;;;;;;15.42;42.74;100564.91;5087784;28;20494;-33
2023/04/28 09:10:39;;;;;;;6.97;2.90;;;;;;;15.33;44.71;100566.34;5087351;28;20031;-34
2023/04/28 09:13:05;;;;;;;7.72;3.03;;;;;;;15.30;45.00;100564.13;5087176;28;20028;-32
2023/04/28 09:15:36;;;;;;;6.80;2.70;;;;;;;15.77;41.68;100566.66;5087328;28;20421;-32
2023/04/28 09:18:03;;;;;;;7.68;3.50;;;;;;;16.27;40.79;100563.25;5087439;28;20138;-33
2023/04/28 09:20:30;;;;;;;6.78;3.08;;;;;;;16.06;43.31;100533.31;5087450;28;20470;-32
2023/04/28 09:23:18;;;;;;;5.77;3.40;;;;;;;16.13;42.55;100543.09;5086514;28;20036;-32
2023/04/28 09:26:04;;;;;;;;;;;;;;;16.02;40.69;100553.69;5087644;28;20016;-32
2023/04/28 09:28:30;;;;;;;6.47;2.67;;;;;;;16.54;40.68;100546.44;5087297;28;19912;-32
2023/04/28 09:30:56;;;;;;;5.57;2.70;;;;;;;16.81;41.55;100539.28;5086882;28;20103;-33
2023/04/28 09:33:22;;;;;;;7.50;3.00;;;;;;;16.93;41.48;100546.47;5087134;28;20149;-32
2023/04/28 09:35:48;;;;;;;4.80;2.38;;;;;;;16.43;39.75;100542.78;5086902;28;20028;-32
2023/04/28 09:38:14;;;;;;;4.05;2.78;;;;;;;16.18;41.18;100535.94;5087230;28;20447;-33
2023/04/28 09:41:01;;;;;;;5.38;2.72;;;;;;;16.86;42.20;100539.38;5086519;28;20060;-35
2023/04/28 09:43:32;;;;;;;7.47;2.63;;;;;;;16.62;39.98;100535.25;5086947;28;20035;-32
2023/04/28 09:46:00;;;;;;;6.93;3.00;;;;;;;16.68;43.99;100528.88;5086727;28;20020;-32
2023/04/28 09:48:27;;;;;;;6.20;2.60;;;;;;;16.02;40.53;100524.09;5086803;28;20028;-32
2023/04/28 09:50:54;;;;;;;6.18;3.20;;;;;;;16.21;43.01;100505.03;5086766;28;20035;-35
2023/04/28 09:53:22;;;;;;;6.43;2.90;;;;;;;16.46;40.65;100521.53;5086475;28;20511;-32
2023/04/28 09:55:49;;;;;;;;;;;;;;;16.38;39.87;100513.88;5087083;28;20048;-33
2023/04/28 09:58:18;;;;;;;6.80;3.20;;;;;;;17.04;40.22;100505.09;5085955;28;19931;-32
2023/04/28 10:00:43;;;;;;;5.80;3.28;;;;;;;17.32;38.69;100505.97;5086455;28;20118;-32
2023/04/28 10:03:10;;;;;;;5.07;2.83;;;;;;;17.44;38.20;100501.25;5086539;28;20832;-32
2023/04/28 10:05:38;;;;;;;5.05;2.83;;;;;;;17.53;38.09;100505.13;5086359;28;20524;-32
2023/04/28 10:08:04;;;;;;;5.72;2.80;;;;;;;17.20;37.84;100509.63;5085435;28;20044;-32
2023/04/28 10:10:30;;;;;;;6.82;3.17;;;;;;;17.18;36.09;100506.38;5085892;28;20039;-32
2023/04/28 10:12:56;;;;;;;4.88;2.78;;;;;;;17.97;39.75;100499.63;5086626;28;20048;-33
2023/04/28 10:15:22;;;;;;;5.10;2.60;;;;;;;17.38;40.36;100483.41;5086195;28;20036;-32
2023/04/28 10:17:49;;;;;;;6.85;2.90;;;;;;;17.63;38.79;100463.94;5086636;28;20761;-32
2023/04/28 10:20:15;;;;;;;4.23;2.50;;;;;;;18.11;37.84;100493.81;5085733;28;20117;-32
2023/04/28 10:22:56;;;;;;;4.22;2.40;;;;;;;17.17;38.87;100488.56;5086455;28;20482;-32
2023/04/28 10:25:28;;;;;;;4.75;2.60;;;;;;;17.74;36.95;100492.66;5086096;28;20035;-32
2023/04/28 10:27:54;;;;;;;6.55;2.80;;;;;;;17.75;37.89;100463.78;5085747;28;20028;-32
2023/04/28 10:30:24;;;;;;;5.60;2.70;;;;;;;17.70;39.72;100483.44;5085276;28;20039;-32
2023/04/28 10:33:23;;;;;;;5.57;2.45;;;;;;;17.70;38.59;100471.84;5086374;28;20032;-32
2023/04/28 10:35:48;;;;;;;6.35;3.00;;;;;;;18.03;37.06;100474.28;5086094;28;20413;-32
2023/04/28 10:38:14;;;;;;;5.82;2.50;;;;;;;18.54;38.37;100478.41;5085556;28;20016;-33
2023/04/28 10:40:44;;;;;;;4.63;2.55;;;;;;;18.65;34.73;100483.63;5086203;28;20119;-31
2023/04/28 10:43:31;;;;;;;5.10;2.65;;;;;;;19.02;34.42;100463.81;5086217;28;20028;-33
2023/04/28 10:46:00;;;;;;;4.32;2.70;;;;;;;18.98;34.66;100472.69;5086115;28;20020;-35
2023/04/28 10:48:25;;;;;;;4.75;2.88;;;;;;;19.41;35.90;100460.66;5085733;28;20039;-33
2023/04/28 10:51:06;;;;;;;5.93;2.42;;;;;;;18.74;34.64;100462.31;5086424;28;20035;-32
2023/04/28 10:53:43;;;;;;;6.25;2.70;;;;;;;17.91;35.27;100462.06;5085879;28;20028;-32
2023/04/28 10:56:18;;;;;;;5.68;2.85;;;;;;;17.64;36.88;100466.41;5086131;28;20492;-33
2023/04/28 10:58:48;;;;;;;5.32;2.42;;;;;;;17.91;36.45;100457.47;5085058;28;20028;-33
2023/04/28 11:01:25;;;;;;;6.47;2.58;;;;;;;18.16;34.63;100461.44;5085638;28;20035;-33
2023/04/28 11:04:06;;;;;;;;;;;;;;;18.35;35.92;100472.63;5085792;28;20067;-32
2023/04/28 11:06:34;;;;;;;5.03;2.60;;;;;;;18.34;35.08;100450.22;5085613;28;19912;-31
2023/04/28 11:09:11;;;;;;;5.03;2.40;;;;;;;18.16;33.32;100464.13;5085434;28;20524;-32
2023/04/28 11:11:38;;;;;;;5.35;2.60;;;;;;;18.17;34.23;100457.69;5085960;28;20158;-32
2023/04/28 11:14:16;;;;;;;6.97;2.95;;;;;;;19.09;32.69;100463.56;5085712;28;20063;-33
2023/04/28 11:17:07;;;;;;;4.20;2.38;;;;;;;20.04;31.47;100462.31;5085587;28;20500;-33
2023/04/28 11:19:38;;;;;;;4.78;2.55;;;;;;;20.63;30.72;100458.97;5087608;28;20032;-32
2023/04/28 11:22:12;;;;;;;5.00;2.60;;;;;;;19.95;32.65;100437.69;5089459;28;20110;-32
2023/04/28 11:24:38;;;;;;;4.45;2.70;;;;;;;20.13;33.06;100451.78;5089485;28;20073;-33
2023/04/28 11:27:04;;;;;;;3.88;2.45;;;;;;;20.35;31.39;100452.28;5089638;28;20049;-32